Time;durP1;ratioP1;P1;durP2;ratioP2;P2;SDS_P1;SDS_P2;PMS_P1;PMS_P2;Temp;Humidity;BMP_temperature;BMP_pressure;BME280_temperature;BME280_humidity;BME280_pressure;Samples;Min_cycle;Max_cycle;Signal;HPM_P1;HPM_P2
2023/03/02 00:02:25;;;;;;;26.48;17.52;;;21.40;59.20;;;;;;5032345;28;20512;-71
2023/03/02 00:04:55;;;;;;;32.88;19.25;;;21.30;59.20;;;;;;5028280;28;20034;-71
2023/03/02 00:07:26;;;;;;;32.88;19.00;;;21.40;59.10;;;;;;5033110;28;20057;-71
2023/03/02 00:09:54;;;;;;;28.92;17.13;;;21.30;59.20;;;;;;5030009;28;20049;-71
2023/03/02 00:12:20;;;;;;;29.70;18.27;;;21.40;59.00;;;;;;5024999;28;20113;-71
2023/03/02 00:14:46;;;;;;;28.38;16.80;;;21.40;58.90;;;;;;5056050;28;20421;-71
2023/03/02 00:17:12;;;;;;;27.17;16.88;;;21.50;59.00;;;;;;5049512;28;20036;-71
2023/03/02 00:19:38;;;;;;;28.30;16.58;;;21.40;59.00;;;;;;5043739;28;20504;-71
2023/03/02 00:22:04;;;;;;;27.63;18.15;;;21.40;58.70;;;;;;5032788;28;20038;-71
2023/03/02 00:24:30;;;;;;;32.70;17.95;;;21.60;58.80;;;;;;5046179;28;20415;-71
2023/03/02 00:26:57;;;;;;;29.83;16.35;;;21.50;58.70;;;;;;5043491;28;20034;-71
2023/03/02 00:29:22;;;;;;;27.75;17.85;;;21.50;58.60;;;;;;5029045;28;20113;-71
2023/03/02 00:31:48;;;;;;;27.90;17.50;;;21.50;58.50;;;;;;5048063;28;20116;-71
2023/03/02 00:34:15;;;;;;;28.00;17.60;;;21.40;58.50;;;;;;5046751;28;20480;-70
2023/03/02 00:36:41;;;;;;;33.17;16.35;;;21.30;58.50;;;;;;5049684;28;20508;-71
2023/03/02 00:39:07;;;;;;;25.52;15.32;;;21.40;58.60;;;;;;5031946;28;20052;-71
2023/03/02 00:41:33;;;;;;;27.20;16.73;;;21.30;58.60;;;;;;5043794;28;20045;-70
2023/03/02 00:43:59;;;;;;;26.38;16.15;;;21.20;58.40;;;;;;5028628;28;20422;-71
2023/03/02 00:46:27;;;;;;;26.88;17.55;;;21.40;58.70;;;;;;5028091;28;20087;-71
2023/03/02 00:48:53;;;;;;;30.08;17.45;;;21.30;58.70;;;;;;5025024;28;20037;-71
2023/03/02 00:51:19;;;;;;;28.23;16.58;;;21.20;58.70;;;;;;5016393;28;20844;-70
2023/03/02 00:53:45;;;;;;;28.98;16.52;;;21.20;58.70;;;;;;5031878;28;20029;-70
2023/03/02 00:56:12;;;;;;;27.55;16.48;;;21.20;58.70;;;;;;5031279;28;20053;-71
2023/03/02 00:58:42;;;;;;;27.88;17.10;;;21.00;58.60;;;;;;5029399;28;20045;-71
2023/03/02 01:01:11;;;;;;;25.67;17.42;;;21.00;58.80;;;;;;5015354;28;20391;-71
2023/03/02 01:03:41;;;;;;;29.92;17.63;;;21.10;58.70;;;;;;5020229;28;20053;-71
2023/03/02 01:06:18;;;;;;;27.05;17.65;;;21.10;58.70;;;;;;5026035;28;20429;-71
2023/03/02 01:08:44;;;;;;;29.05;17.92;;;21.10;58.70;;;;;;5009316;28;20049;-71
2023/03/02 01:11:16;;;;;;;28.65;17.90;;;21.10;58.50;;;;;;5008834;28;20058;-70
2023/03/02 01:13:43;;;;;;;27.98;16.52;;;21.10;58.50;;;;;;5028791;28;20532;-71
2023/03/02 01:16:10;;;;;;;31.65;18.45;;;21.10;58.30;;;;;;5039394;28;20067;-71
2023/03/02 01:18:37;;;;;;;29.05;17.25;;;21.10;58.30;;;;;;5047097;28;20040;-71
2023/03/02 01:21:09;;;;;;;33.28;18.05;;;21.30;58.30;;;;;;5046401;28;20087;-71
2023/03/02 01:23:35;;;;;;;29.08;17.52;;;21.20;58.20;;;;;;5042978;28;20061;-71
2023/03/02 01:26:01;;;;;;;27.17;17.48;;;21.20;58.10;;;;;;5048878;28;20075;-71
2023/03/02 01:28:27;;;;;;;34.05;17.60;;;21.20;58.20;;;;;;5041445;28;20420;-71
2023/03/02 01:30:53;;;;;;;29.80;17.45;;;21.30;58.20;;;;;;5038569;28;20044;-71
2023/03/02 01:33:20;;;;;;;31.40;18.15;;;21.10;58.00;;;;;;5048105;28;20033;-70
2023/03/02 01:35:46;;;;;;;31.85;18.50;;;21.20;58.00;;;;;;5033002;28;20036;-71
2023/03/02 01:38:12;;;;;;;30.10;17.30;;;21.10;58.00;;;;;;5014773;28;20026;-71
2023/03/02 01:40:38;;;;;;;31.02;18.02;;;21.10;58.00;;;;;;5043551;28;20029;-71
2023/03/02 01:43:15;;;;;;;26.92;17.75;;;21.10;58.00;;;;;;5047375;28;20037;-71
2023/03/02 01:45:40;;;;;;;29.30;17.52;;;21.20;58.10;;;;;;5043019;28;20024;-70
2023/03/02 01:48:09;;;;;;;29.40;18.70;;;21.10;58.10;;;;;;5051017;28;20029;-70
2023/03/02 01:50:36;;;;;;;27.90;17.23;;;21.00;58.10;;;;;;5045141;28;20032;-71
2023/03/02 01:53:02;;;;;;;34.00;18.33;;;21.00;58.10;;;;;;5047420;28;20040;-71
2023/03/02 01:55:32;;;;;;;33.63;17.95;;;20.90;58.10;;;;;;5032962;28;20029;-70
2023/03/02 01:58:01;;;;;;;32.70;18.42;;;20.90;58.10;;;;;;5049576;28;20033;-70
2023/03/02 02:00:30;;;;;;;30.90;19.08;;;20.90;58.00;;;;;;5035862;28;20892;-71
2023/03/02 02:03:07;;;;;;;32.33;17.60;;;20.90;58.10;;;;;;5047239;28;20045;-71
2023/03/02 02:05:37;;;;;;;27.88;18.05;;;20.90;58.10;;;;;;5043722;28;20060;-71
2023/03/02 02:08:04;;;;;;;29.38;17.90;;;20.90;57.90;;;;;;5049602;28;20041;-71
2023/03/02 02:10:32;;;;;;;27.40;17.30;;;20.90;57.90;;;;;;5050854;28;20605;-70
2023/03/02 02:12:58;;;;;;;29.17;18.08;;;21.00;57.80;;;;;;5030338;28;20116;-70
2023/03/02 02:15:24;;;;;;;32.33;17.13;;;21.00;58.10;;;;;;5028817;28;20550;-71
2023/03/02 02:17:53;;;;;;;29.52;16.48;;;21.00;58.00;;;;;;5028510;28;20029;-70
2023/03/02 02:20:36;;;;;;;28.75;18.38;;;20.90;57.90;;;;;;5051776;28;20040;-70
2023/03/02 02:23:26;;;;;;;25.25;15.80;;;21.00;57.90;;;;;;5053365;28;20029;-70
2023/03/02 02:25:52;;;;;;;26.52;17.40;;;20.90;57.80;;;;;;5049804;28;20052;-70
2023/03/02 02:28:29;;;;;;;30.23;18.00;;;21.00;57.70;;;;;;5039768;28;20036;-70
2023/03/02 02:31:06;;;;;;;28.42;17.35;;;21.00;57.60;;;;;;5033915;28;20658;-70
2023/03/02 02:33:34;;;;;;;30.08;16.85;;;21.10;57.60;;;;;;5017424;28;20034;-70
2023/03/02 02:36:06;;;;;;;26.60;16.42;;;20.90;57.50;;;;;;5047655;28;20044;-70
2023/03/02 02:38:35;;;;;;;24.70;16.85;;;21.00;57.60;;;;;;5053330;28;20112;-71
2023/03/02 02:41:04;;;;;;;25.42;16.05;;;21.00;57.50;;;;;;5025716;28;20412;-70
2023/03/02 02:43:33;;;;;;;28.67;17.80;;;20.90;57.60;;;;;;5013342;28;20091;-70
2023/03/02 02:46:00;;;;;;;29.52;16.80;;;20.90;57.50;;;;;;5028666;28;20124;-70
2023/03/02 02:48:30;;;;;;;25.88;16.58;;;20.80;57.40;;;;;;5049064;28;20098;-70
2023/03/02 02:51:01;;;;;;;29.20;16.88;;;20.90;57.50;;;;;;5047521;28;20452;-70
2023/03/02 02:53:47;;;;;;;29.48;16.75;;;20.70;57.50;;;;;;5020646;28;20427;-71
2023/03/02 02:56:15;;;;;;;26.83;16.83;;;20.70;57.50;;;;;;5044554;28;20044;-70
2023/03/02 02:58:43;;;;;;;28.77;16.45;;;20.60;57.30;;;;;;5053156;28;20037;-70
2023/03/02 03:01:15;;;;;;;24.55;14.35;;;20.80;57.40;;;;;;5046220;28;20045;-70
2023/03/02 03:03:59;;;;;;;24.33;15.07;;;20.80;57.50;;;;;;5049044;28;20073;-71
2023/03/02 03:06:26;;;;;;;;;;;20.80;57.30;;;;;;5034468;28;20068;-71
2023/03/02 03:08:56;;;;;;;24.05;14.35;;;20.70;57.30;;;;;;5031244;28;19913;-70
2023/03/02 03:11:34;;;;;;;21.02;13.43;;;20.80;57.20;;;;;;5015348;28;20053;-70
2023/03/02 03:14:12;;;;;;;26.70;15.65;;;20.90;57.20;;;;;;5015482;28;20048;-70
2023/03/02 03:16:40;;;;;;;29.27;15.82;;;20.80;57.00;;;;;;5042412;28;20504;-71
2023/03/02 03:19:30;;;;;;;21.90;14.50;;;20.90;57.00;;;;;;5016542;28;20047;-71
2023/03/02 03:22:00;;;;;;;26.00;15.52;;;20.90;56.80;;;;;;5014843;28;20076;-70
2023/03/02 03:24:31;;;;;;;27.33;15.57;;;21.00;56.80;;;;;;5013972;28;20080;-70
2023/03/02 03:26:59;;;;;;;25.27;14.95;;;20.90;56.70;;;;;;5014537;28;20050;-70
2023/03/02 03:29:27;;;;;;;26.45;15.45;;;20.80;56.50;;;;;;5013026;28;20124;-70
2023/03/02 03:31:59;;;;;;;24.88;15.45;;;20.90;56.50;;;;;;4992099;28;20049;-71
2023/03/02 03:34:25;;;;;;;22.50;14.57;;;20.90;56.50;;;;;;5010389;28;20053;-70
2023/03/02 03:36:53;;;;;;;23.17;14.90;;;20.90;56.40;;;;;;5014687;28;20628;-70
2023/03/02 03:39:20;;;;;;;24.48;14.30;;;21.00;56.40;;;;;;5014476;28;20112;-71
2023/03/02 03:41:47;;;;;;;28.63;14.45;;;21.00;56.40;;;;;;5018208;28;20088;-70
2023/03/02 03:44:13;;;;;;;22.88;14.65;;;21.00;56.40;;;;;;5012064;28;20033;-70
2023/03/02 03:46:41;;;;;;;25.58;15.38;;;20.80;56.40;;;;;;5022755;28;20132;-70
2023/03/02 03:49:07;;;;;;;24.05;14.98;;;20.70;56.40;;;;;;5023984;28;20109;-71
2023/03/02 03:51:34;;;;;;;25.48;16.08;;;20.80;56.40;;;;;;5014548;28;20037;-70
2023/03/02 03:54:03;;;;;;;27.13;15.80;;;20.80;56.30;;;;;;5012561;28;20045;-70
2023/03/02 03:56:38;;;;;;;27.55;15.75;;;20.80;56.40;;;;;;5030839;28;20120;-70
2023/03/02 03:59:06;;;;;;;27.05;15.75;;;20.60;56.20;;;;;;5048239;28;20053;-70
2023/03/02 04:01:47;;;;;;;25.15;15.15;;;20.70;56.20;;;;;;5042352;28;20515;-70
2023/03/02 04:04:22;;;;;;;27.92;15.48;;;20.70;56.20;;;;;;5048787;28;20107;-70
2023/03/02 04:06:49;;;;;;;22.48;13.95;;;20.80;56.30;;;;;;5023398;28;20112;-70
2023/03/02 04:09:18;;;;;;;30.50;15.35;;;20.70;56.20;;;;;;5013141;28;20077;-70
2023/03/02 04:11:46;;;;;;;25.83;15.57;;;20.80;56.20;;;;;;5031423;28;20024;-71
2023/03/02 04:14:13;;;;;;;23.80;15.07;;;20.70;56.00;;;;;;5028909;28;20029;-70
2023/03/02 04:16:40;;;;;;;23.52;13.65;;;20.70;56.00;;;;;;5027517;28;20136;-70
2023/03/02 04:19:08;;;;;;;25.02;15.32;;;20.90;55.90;;;;;;5011799;28;20041;-70
2023/03/02 04:21:42;;;;;;;24.35;15.25;;;20.80;55.80;;;;;;5030879;28;20068;-71
2023/03/02 04:24:09;;;;;;;22.53;13.10;;;20.80;55.70;;;;;;5037062;28;20050;-69
2023/03/02 04:26:38;;;;;;;21.95;13.40;;;20.90;55.70;;;;;;5051198;28;20112;-70
2023/03/02 04:29:04;;;;;;;18.95;12.60;;;20.90;55.60;;;;;;5048878;28;20115;-70
2023/03/02 04:31:31;;;;;;;22.55;14.23;;;20.90;55.50;;;;;;5025381;28;20400;-71
2023/03/02 04:33:58;;;;;;;26.33;14.70;;;20.90;55.30;;;;;;5033610;28;20047;-70
2023/03/02 04:36:25;;;;;;;24.38;14.93;;;21.10;55.20;;;;;;5050448;28;20033;-71
2023/03/02 04:38:52;;;;;;;19.73;13.27;;;21.10;55.10;;;;;;5050772;28;20040;-70
2023/03/02 04:41:18;;;;;;;20.05;14.05;;;21.10;55.10;;;;;;5034328;28;20037;-70
2023/03/02 04:43:44;;;;;;;26.38;14.85;;;21.20;55.00;;;;;;5021863;28;20442;-70
2023/03/02 04:46:22;;;;;;;24.17;14.98;;;21.00;55.10;;;;;;5045437;28;20041;-70
2023/03/02 04:48:48;;;;;;;21.17;13.75;;;20.90;55.40;;;;;;5055196;28;20537;-70
2023/03/02 04:51:28;;;;;;;31.42;14.15;;;20.90;55.60;;;;;;5031593;28;20362;-70
2023/03/02 04:53:56;;;;;;;23.80;14.07;;;20.90;55.60;;;;;;5020863;28;20382;-70
2023/03/02 04:56:23;;;;;;;30.00;14.90;;;20.80;55.60;;;;;;5052244;28;20037;-70
2023/03/02 04:58:49;;;;;;;23.70;14.27;;;20.80;55.70;;;;;;5049426;28;20033;-71
2023/03/02 05:01:16;;;;;;;26.42;14.88;;;20.80;55.70;;;;;;5027793;28;20038;-70
2023/03/02 05:03:42;;;;;;;23.70;13.70;;;20.60;55.70;;;;;;5023062;28;20379;-70
2023/03/02 05:06:09;;;;;;;26.33;14.15;;;20.80;55.80;;;;;;5021091;28;20078;-71
2023/03/02 05:08:36;;;;;;;25.52;14.68;;;20.60;55.70;;;;;;5037982;28;20078;-71
2023/03/02 05:11:02;;;;;;;24.08;14.32;;;20.70;55.80;;;;;;5052191;28;20056;-70
2023/03/02 05:13:28;;;;;;;22.25;13.07;;;20.70;55.80;;;;;;5048301;28;20041;-70
2023/03/02 05:15:56;;;;;;;23.90;13.73;;;20.60;55.70;;;;;;5029313;28;20089;-70
2023/03/02 05:18:23;;;;;;;21.85;13.80;;;20.60;55.80;;;;;;5039309;28;20541;-70
2023/03/02 05:20:50;;;;;;;20.65;13.75;;;20.60;55.80;;;;;;5048012;28;20394;-70
2023/03/02 05:23:22;;;;;;;21.52;14.02;;;20.60;55.80;;;;;;5024787;28;20092;-70
2023/03/02 05:25:53;;;;;;;24.27;14.77;;;20.50;55.90;;;;;;5031913;28;20030;-70
2023/03/02 05:28:20;;;;;;;23.35;13.85;;;20.60;55.90;;;;;;5046064;28;20785;-70
2023/03/02 05:30:46;;;;;;;26.15;13.68;;;20.60;55.90;;;;;;5043883;28;20389;-70
2023/03/02 05:33:13;;;;;;;19.75;12.88;;;20.40;56.00;;;;;;5031652;28;20045;-70
2023/03/02 05:35:39;;;;;;;27.55;14.25;;;20.50;55.90;;;;;;5050310;28;20032;-70
2023/03/02 05:38:05;;;;;;;23.08;13.75;;;20.60;55.80;;;;;;5043580;28;20032;-70
2023/03/02 05:40:31;;;;;;;25.92;14.27;;;20.60;55.80;;;;;;5030056;28;20026;-70
2023/03/02 05:42:58;;;;;;;25.33;13.70;;;20.70;55.80;;;;;;5011613;28;20022;-70
2023/03/02 05:45:30;;;;;;;23.60;13.52;;;20.60;55.60;;;;;;5032373;28;20036;-71
2023/03/02 05:47:56;;;;;;;25.83;12.85;;;20.70;55.60;;;;;;5037103;28;20049;-70
2023/03/02 05:50:23;;;;;;;24.27;15.00;;;20.70;55.50;;;;;;5050818;28;20029;-70
2023/03/02 05:52:49;;;;;;;22.27;14.35;;;20.70;55.40;;;;;;5033690;28;20028;-70
2023/03/02 05:55:17;;;;;;;24.27;14.23;;;20.80;55.40;;;;;;5011607;28;20044;-70
2023/03/02 05:57:43;;;;;;;23.77;13.55;;;20.80;55.30;;;;;;5017598;28;20026;-71
2023/03/02 06:00:11;;;;;;;26.08;15.20;;;20.80;55.20;;;;;;5035245;28;20382;-70
2023/03/02 06:02:41;;;;;;;23.63;14.73;;;20.80;55.10;;;;;;5013928;28;20022;-70
2023/03/02 06:05:10;;;;;;;22.27;13.68;;;20.80;55.00;;;;;;5045934;28;20041;-70
2023/03/02 06:07:36;;;;;;;23.13;14.85;;;20.90;55.00;;;;;;5013025;28;20053;-70
2023/03/02 06:10:03;;;;;;;25.77;14.55;;;21.00;55.00;;;;;;5050728;28;20056;-70
2023/03/02 06:12:29;;;;;;;29.35;16.10;;;21.00;55.00;;;;;;5031854;28;20116;-70
2023/03/02 06:14:55;;;;;;;26.50;15.95;;;21.00;54.90;;;;;;5030934;28;20076;-71
2023/03/02 06:17:21;;;;;;;29.83;17.92;;;21.00;55.00;;;;;;5040653;28;20061;-69
2023/03/02 06:19:47;;;;;;;66.35;31.58;;;20.90;54.20;;;;;;5050956;28;20037;-71
2023/03/02 06:22:13;;;;;;;22.70;15.00;;;21.00;51.10;;;;;;5046681;28;20028;-70
2023/03/02 06:24:39;;;;;;;20.73;13.45;;;20.90;48.00;;;;;;5050824;28;20044;-70
2023/03/02 06:27:05;;;;;;;20.90;14.13;;;21.00;47.50;;;;;;5027523;28;20041;-69
2023/03/02 06:29:31;;;;;;;20.70;12.65;;;21.20;47.10;;;;;;5024095;28;20038;-70
2023/03/02 06:31:57;;;;;;;18.17;12.10;;;21.40;46.60;;;;;;5018081;28;20469;-71
2023/03/02 06:34:23;;;;;;;18.75;11.10;;;21.20;46.40;;;;;;5027852;28;20040;-72
2023/03/02 06:36:49;;;;;;;22.05;11.15;;;21.50;45.80;;;;;;5026627;28;20025;-72
2023/03/02 06:39:15;;;;;;;19.05;12.52;;;21.40;45.50;;;;;;5021508;28;20073;-69
2023/03/02 06:41:42;;;;;;;16.55;10.82;;;21.30;45.50;;;;;;5030912;28;20032;-68
2023/03/02 06:44:08;;;;;;;1.80;1.52;;;21.60;46.80;;;;;;5030553;28;20037;-70
2023/03/02 06:46:35;;;;;;;1.13;0.80;;;21.80;58.30;;;;;;5031032;28;20044;-70
2023/03/02 06:49:00;;;;;;;4.90;3.38;;;22.00;57.80;;;;;;5030693;28;20113;-69
2023/03/02 06:51:27;;;;;;;18.63;11.60;;;22.40;60.20;;;;;;5026230;28;20065;-71
2023/03/02 06:53:52;;;;;;;18.38;12.18;;;22.50;54.40;;;;;;5027218;28;20072;-70
2023/03/02 06:56:18;;;;;;;23.67;13.80;;;22.40;47.30;;;;;;5010863;28;20042;-71
2023/03/02 06:58:44;;;;;;;23.58;16.05;;;22.40;44.70;;;;;;5010872;28;20136;-70
2023/03/02 07:01:10;;;;;;;21.80;13.57;;;22.40;45.20;;;;;;5010734;28;20034;-70
2023/03/02 07:03:36;;;;;;;25.83;16.00;;;22.40;44.70;;;;;;5013351;28;20038;-70
2023/03/02 07:06:02;;;;;;;36.65;20.98;;;22.40;45.50;;;;;;5014881;28;20397;-70
2023/03/02 07:08:29;;;;;;;29.67;14.63;;;22.40;45.10;;;;;;5023525;28;20401;-70
2023/03/02 07:10:55;;;;;;;28.17;15.73;;;22.50;56.90;;;;;;5033803;28;20096;-70
2023/03/02 07:13:21;;;;;;;21.35;13.10;;;22.40;54.20;;;;;;5026541;28;20061;-70
2023/03/02 07:15:47;;;;;;;19.00;12.57;;;22.50;54.30;;;;;;5027186;28;20041;-72
2023/03/02 07:18:13;;;;;;;21.35;10.20;;;22.50;54.70;;;;;;5034178;28;20469;-74
2023/03/02 07:20:39;;;;;;;21.42;10.95;;;22.50;55.40;;;;;;5034053;28;20053;-73
2023/03/02 07:23:05;;;;;;;21.88;11.23;;;22.70;55.40;;;;;;5034178;28;20030;-74
2023/03/02 07:25:31;;;;;;;32.05;19.95;;;22.60;54.90;;;;;;5033959;28;20530;-73
2023/03/02 07:27:58;;;;;;;26.92;16.58;;;22.80;54.50;;;;;;5032320;28;20033;-74
2023/03/02 07:30:24;;;;;;;24.13;11.55;;;22.80;54.10;;;;;;5031344;28;20025;-73
2023/03/02 07:32:50;;;;;;;21.90;9.43;;;22.90;53.90;;;;;;5033694;28;20549;-74
2023/03/02 07:35:17;;;;;;;16.10;9.23;;;22.90;53.50;;;;;;5033258;28;20120;-73
2023/03/02 07:37:43;;;;;;;23.83;13.35;;;22.90;53.10;;;;;;5042606;28;20095;-74
2023/03/02 07:40:11;;;;;;;25.30;14.32;;;22.90;52.80;;;;;;5025831;28;20037;-74
2023/03/02 07:42:37;;;;;;;28.25;16.05;;;23.00;53.00;;;;;;5031742;28;20057;-75
2023/03/02 07:45:05;;;;;;;23.23;13.95;;;22.90;53.70;;;;;;5041036;28;20049;-73
2023/03/02 07:47:31;;;;;;;27.88;13.25;;;22.80;54.60;;;;;;5033589;28;20037;-72
2023/03/02 07:49:58;;;;;;;22.33;13.45;;;22.60;55.30;;;;;;5046509;28;20033;-76
2023/03/02 07:52:24;;;;;;;22.17;13.65;;;22.50;56.10;;;;;;5053285;28;20606;-74
2023/03/02 07:54:50;;;;;;;24.25;13.60;;;22.30;57.00;;;;;;5048476;28;20029;-73
2023/03/02 07:57:17;;;;;;;20.33;12.13;;;22.30;57.30;;;;;;5029227;28;20030;-72
2023/03/02 07:59:43;;;;;;;22.15;12.93;;;22.40;57.90;;;;;;5051273;28;20167;-72
2023/03/02 08:02:19;;;;;;;24.10;14.88;;;22.10;57.90;;;;;;5047849;28;20362;-77
2023/03/02 08:04:45;;;;;;;21.23;13.50;;;22.20;55.10;;;;;;5050307;28;20062;-76
2023/03/02 08:07:11;;;;;;;21.02;11.65;;;22.50;54.00;;;;;;5043096;28;20187;-73
2023/03/02 08:09:38;;;;;;;26.75;15.25;;;22.70;47.50;;;;;;5043990;28;20124;-73
2023/03/02 08:12:04;;;;;;;21.95;12.30;;;22.90;54.70;;;;;;5029816;28;20040;-72
2023/03/02 08:14:30;;;;;;;26.55;15.02;;;22.80;56.70;;;;;;5053078;28;20032;-71
2023/03/02 08:16:56;;;;;;;18.75;13.05;;;22.60;56.70;;;;;;5029619;28;20037;-72
2023/03/02 08:19:22;;;;;;;23.27;13.88;;;22.70;57.70;;;;;;5045126;28;20401;-71
2023/03/02 08:21:48;;;;;;;24.73;13.60;;;22.60;58.50;;;;;;5048626;28;20470;-71
2023/03/02 08:24:14;;;;;;;19.85;12.48;;;22.50;59.10;;;;;;5052675;28;20125;-72
2023/03/02 08:26:40;;;;;;;16.30;11.15;;;22.40;59.90;;;;;;5039258;28;20033;-72
2023/03/02 08:29:06;;;;;;;19.35;12.30;;;22.30;60.40;;;;;;5041223;28;20370;-70
2023/03/02 08:31:32;;;;;;;25.92;12.43;;;22.30;59.80;;;;;;5026258;28;20060;-72
2023/03/02 08:33:58;;;;;;;22.95;12.50;;;22.40;59.30;;;;;;5032679;28;20036;-71
2023/03/02 08:36:25;;;;;;;27.20;12.35;;;22.40;59.30;;;;;;5046043;28;20055;-71
2023/03/02 08:38:53;;;;;;;19.13;9.68;;;22.30;59.50;;;;;;5045756;28;20049;-70
2023/03/02 08:41:21;;;;;;;16.23;10.27;;;22.20;59.60;;;;;;5029787;28;20041;-71
2023/03/02 08:43:48;;;;;;;21.58;10.48;;;22.40;59.70;;;;;;5021492;28;20416;-71
2023/03/02 08:46:18;;;;;;;19.00;10.18;;;22.40;59.70;;;;;;5034434;28;20366;-71
2023/03/02 08:48:45;;;;;;;13.68;8.93;;;22.30;59.70;;;;;;5031736;28;20065;-71
2023/03/02 08:51:13;;;;;;;11.30;7.72;;;22.30;59.70;;;;;;5037852;28;20127;-70
2023/03/02 08:53:42;;;;;;;11.10;6.57;;;22.40;59.70;;;;;;5045733;28;20477;-70
2023/03/02 08:56:26;;;;;;;15.32;7.97;;;22.30;59.70;;;;;;5052031;28;20102;-77
2023/03/02 08:58:54;;;;;;;10.50;7.18;;;22.30;59.50;;;;;;5046187;28;20029;-75
2023/03/02 09:01:29;;;;;;;11.77;7.22;;;22.40;59.50;;;;;;5029547;28;20052;-71
2023/03/02 09:03:56;;;;;;;14.13;6.70;;;22.40;59.50;;;;;;5039872;28;20033;-72
2023/03/02 09:06:22;;;;;;;12.35;7.00;;;22.30;60.10;;;;;;5033761;28;20021;-73
2023/03/02 09:08:48;;;;;;;13.63;7.65;;;22.30;59.70;;;;;;5028353;28;20517;-71
2023/03/02 09:11:15;;;;;;;14.55;8.65;;;22.40;60.00;;;;;;5017518;28;20074;-71
2023/03/02 09:13:41;;;;;;;14.73;8.75;;;22.40;60.20;;;;;;5048743;28;20029;-73
2023/03/02 09:16:08;;;;;;;15.70;9.73;;;22.40;60.10;;;;;;5034431;28;20037;-72
2023/03/02 09:18:35;;;;;;;15.90;8.35;;;22.30;60.40;;;;;;5035177;28;20065;-72
2023/03/02 09:21:01;;;;;;;13.57;7.65;;;22.30;60.60;;;;;;5042595;28;20119;-74
2023/03/02 09:23:28;;;;;;;15.13;8.02;;;22.30;60.80;;;;;;5036013;28;20037;-72
2023/03/02 09:25:55;;;;;;;12.32;7.20;;;22.20;61.00;;;;;;5031593;28;20037;-72
2023/03/02 09:28:21;;;;;;;13.75;8.15;;;22.20;61.50;;;;;;5031347;28;20489;-71
2023/03/02 09:30:50;;;;;;;16.27;8.35;;;22.30;61.70;;;;;;5023044;28;20113;-70
2023/03/02 09:33:16;;;;;;;14.60;7.60;;;22.30;61.40;;;;;;5033680;28;20438;-75
2023/03/02 09:35:42;;;;;;;13.07;6.95;;;22.20;61.70;;;;;;5037264;28;20033;-71
2023/03/02 09:38:11;;;;;;;12.27;7.38;;;22.40;61.90;;;;;;5036893;28;20033;-75
2023/03/02 09:40:46;;;;;;;11.95;7.30;;;22.30;61.80;;;;;;5050968;28;20029;-72
2023/03/02 09:43:39;;;;;;;9.48;6.22;;;22.50;62.20;;;;;;5038602;28;20043;-75
2023/03/02 09:46:16;;;;;;;14.32;6.65;;;22.30;61.60;;;;;;5021016;28;20103;-76
2023/03/02 09:49:07;;;;;;;15.18;7.38;;;22.30;61.20;;;;;;5047243;28;20427;-74
2023/03/02 09:52:03;;;;;;;10.85;6.25;;;22.40;61.20;;;;;;5032888;28;20443;-76
2023/03/02 09:54:29;;;;;;;10.82;5.78;;;22.30;61.50;;;;;;5011994;28;20053;-76
2023/03/02 09:56:57;;;;;;;9.80;5.47;;;22.50;61.00;;;;;;5020158;28;20042;-75
2023/03/02 09:59:38;;;;;;;10.57;6.18;;;22.50;61.30;;;;;;5017766;28;20050;-76
2023/03/02 10:02:37;;;;;;;7.68;4.80;;;22.60;60.70;;;;;;5003720;28;20065;-74
2023/03/02 10:05:08;;;;;;;9.10;4.85;;;22.60;61.40;;;;;;5027186;28;20060;-76
2023/03/02 10:07:38;;;;;;;8.45;3.92;;;22.70;61.10;;;;;;5026305;28;20033;-73
2023/03/02 10:10:27;;;;;;;7.57;4.32;;;22.60;60.90;;;;;;5022115;28;20050;-76
2023/03/02 10:13:08;;;;;;;6.72;4.18;;;22.60;60.60;;;;;;5009555;28;20053;-74
2023/03/02 10:16:00;;;;;;;8.73;4.50;;;22.60;60.30;;;;;;5015736;28;20034;-75
2023/03/02 10:18:37;;;;;;;11.40;5.22;;;22.70;61.10;;;;;;5018133;28;20049;-76
2023/03/02 10:21:11;;;;;;;7.68;4.47;;;22.60;60.70;;;;;;5008218;28;20049;-72
2023/03/02 10:23:51;;;;;;;7.75;4.90;;;22.50;61.20;;;;;;5007728;28;20120;-73
2023/03/02 10:26:33;;;;;;;7.25;4.05;;;22.60;61.40;;;;;;5025255;28;20045;-73
2023/03/02 10:29:20;;;;;;;8.43;4.57;;;22.70;64.20;;;;;;5016100;28;20042;-72
2023/03/02 10:31:51;;;;;;;6.72;4.18;;;22.60;66.40;;;;;;5020706;28;20049;-73
2023/03/02 10:34:18;;;;;;;8.07;4.10;;;22.50;67.10;;;;;;5042579;28;20032;-74
2023/03/02 10:36:46;;;;;;;6.32;3.13;;;22.80;67.50;;;;;;5032988;28;20029;-72
2023/03/02 10:39:14;;;;;;;8.45;3.42;;;22.80;67.20;;;;;;5030521;28;20040;-69
2023/03/02 10:41:48;;;;;;;11.43;4.40;;;22.90;65.90;;;;;;5050603;28;20095;-70
2023/03/02 10:44:26;;;;;;;21.10;6.35;;;22.90;60.50;;;;;;5035238;28;20043;-72
2023/03/02 10:46:52;;;;;;;7.95;4.60;;;23.10;59.90;;;;;;5040694;28;20029;-72
2023/03/02 10:49:26;;;;;;;9.25;3.90;;;23.30;48.90;;;;;;5046061;28;20072;-74
2023/03/02 10:52:11;;;;;;;8.63;4.00;;;23.30;45.60;;;;;;5054353;28;20045;-74
2023/03/02 10:54:37;;;;;;;5.88;3.70;;;23.20;45.20;;;;;;5052840;28;20040;-73
2023/03/02 10:57:18;;;;;;;11.65;3.53;;;23.40;43.50;;;;;;5038269;28;20478;-72
2023/03/02 10:59:50;;;;;;;9.13;3.72;;;23.30;41.50;;;;;;5033973;28;20636;-72
2023/03/02 11:02:22;;;;;;;6.88;4.00;;;23.20;42.20;;;;;;5040260;28;20110;-73
2023/03/02 11:05:12;;;;;;;7.32;4.13;;;23.40;49.00;;;;;;5054079;28;20369;-73
2023/03/02 11:07:38;;;;;;;3.58;2.85;;;23.40;46.10;;;;;;5054286;28;20025;-72
2023/03/02 11:10:19;;;;;;;5.72;3.28;;;23.40;45.60;;;;;;5046407;28;20075;-74
2023/03/02 11:12:47;;;;;;;5.60;2.90;;;23.40;40.50;;;;;;5025774;28;20057;-74
2023/03/02 11:15:34;;;;;;;4.28;2.90;;;23.30;38.30;;;;;;5039375;28;20038;-74
2023/03/02 11:18:29;;;;;;;5.55;3.42;;;23.40;38.20;;;;;;5042914;28;20120;-74
2023/03/02 11:21:03;;;;;;;7.43;4.53;;;23.30;37.30;;;;;;5027942;28;20048;-74
2023/03/02 11:23:52;;;;;;;4.50;3.17;;;23.10;36.00;;;;;;5051510;28;20041;-73
2023/03/02 11:26:23;;;;;;;2.72;2.20;;;23.20;35.50;;;;;;5020860;28;20049;-72
2023/03/02 11:28:56;;;;;;;5.80;2.80;;;23.00;36.50;;;;;;4996976;28;20441;-71
2023/03/02 11:32:02;;;;;;;4.53;3.20;;;23.00;37.30;;;;;;5020931;28;20042;-72
2023/03/02 11:34:42;;;;;;;2.95;2.22;;;22.90;37.20;;;;;;4952866;29;20051;-72
2023/03/02 11:37:14;;;;;;;6.22;3.45;;;23.00;38.30;;;;;;4940163;29;20051;-74
2023/03/02 11:39:40;;;;;;;5.95;3.47;;;22.80;39.40;;;;;;4948677;29;20043;-73
2023/03/02 11:42:19;;;;;;;5.93;3.60;;;22.90;39.80;;;;;;4935871;29;20506;-72
2023/03/02 11:44:48;;;;;;;6.72;3.00;;;23.00;61.40;;;;;;4941276;29;20043;-72
2023/03/02 11:47:16;;;;;;;5.35;3.70;;;23.10;66.50;;;;;;4930745;29;20059;-72
2023/03/02 11:49:52;;;;;;;6.70;3.15;;;23.10;70.30;;;;;;4943889;29;20039;-73
2023/03/02 11:52:25;;;;;;;6.60;4.10;;;23.30;71.80;;;;;;4952441;29;20602;-72
2023/03/02 11:55:03;;;;;;;10.63;3.10;;;23.20;73.80;;;;;;4931725;29;20475;-72
2023/03/02 11:57:47;;;;;;;8.75;3.42;;;23.20;74.70;;;;;;4933443;29;20149;-73
2023/03/02 12:00:37;;;;;;;7.90;3.20;;;23.40;67.60;;;;;;4947110;28;20496;-73
2023/03/02 12:03:17;;;;;;;7.40;3.08;;;23.40;67.70;;;;;;4946896;28;20114;-74
2023/03/02 12:06:01;;;;;;;10.00;3.67;;;23.50;69.80;;;;;;4962736;28;20061;-74
2023/03/02 12:08:45;;;;;;;5.85;3.17;;;23.50;70.10;;;;;;5002080;28;20069;-74
2023/03/02 12:11:17;;;;;;;7.30;3.60;;;23.70;70.90;;;;;;5011558;28;20081;-73
2023/03/02 12:13:47;;;;;;;4.40;3.20;;;23.70;70.10;;;;;;5016554;28;20033;-73
2023/03/02 12:16:33;;;;;;;6.53;2.88;;;23.60;71.60;;;;;;5043589;28;20099;-73
2023/03/02 12:19:12;;;;;;;4.75;3.53;;;23.80;71.20;;;;;;5037347;28;20431;-73
2023/03/02 12:21:40;;;;;;;8.77;3.08;;;23.60;71.00;;;;;;5031289;28;20045;-72
2023/03/02 12:24:23;;;;;;;4.85;3.08;;;23.70;68.80;;;;;;5030720;28;20025;-74
2023/03/02 12:26:58;;;;;;;;;;;23.60;64.20;;;;;;5018037;28;20034;-71
2023/03/02 12:29:24;;;;;;;4.30;2.72;;;23.50;62.60;;;;;;5024501;28;20272;-74
2023/03/02 12:31:53;;;;;;;6.22;2.58;;;23.50;62.30;;;;;;5032271;28;20125;-73
2023/03/02 12:34:31;;;;;;;4.70;2.60;;;23.50;62.00;;;;;;5031392;28;20397;-74
2023/03/02 12:37:05;;;;;;;3.78;2.78;;;23.40;62.10;;;;;;5032643;28;20052;-73
2023/03/02 12:39:47;;;;;;;4.97;2.90;;;23.20;62.50;;;;;;5031561;28;20033;-74
2023/03/02 12:42:31;;;;;;;5.97;3.65;;;23.20;62.80;;;;;;5030912;28;20033;-73
2023/03/02 12:45:08;;;;;;;6.18;2.85;;;23.20;62.80;;;;;;5036450;28;20040;-80
2023/03/02 12:47:36;;;;;;;4.53;2.97;;;23.20;63.70;;;;;;5038156;28;20104;-75
2023/03/02 12:50:06;;;;;;;3.58;2.65;;;23.20;65.70;;;;;;5052115;28;20037;-72